Bowler, Wisconsin
Current Conditions -  °F | °C
As of 6:35 PM on Sunday 25 Jan 2015 (Local Time) from KCLI Reporting Station
Overcast Overcast  
Wind Chill: 16°   Ceiling: 12000
Heat Index: 16°   Visibility: 10mi
Dew Point:   Wind: 0mph
Humidity: 73%   Direction: NA
Pressure: 30.05"   Gusts: NA
Location:  44.86°N, 88.98°W
Report Text: KCLI 260035Z AUTO 00000KT 10SM OVC120 M09/M13 A3005 RMK AO2
Loading
Personal Weather Stations






























Interactive Weather Map New forecast layout! Learn more

10-Day Weather Forecast

Advertisements
Track Severe Weather on mobile